createdAt,value
2022-09-22T00:00:07.188Z,8.48
2022-09-22T00:01:07.276Z,8.50
2022-09-22T00:02:07.245Z,8.45
2022-09-22T00:03:07.218Z,8.40
2022-09-22T00:04:07.245Z,8.37
2022-09-22T00:05:07.148Z,8.37
2022-09-22T00:06:07.113Z,8.36
2022-09-22T00:07:07.107Z,8.35
2022-09-22T00:08:07.158Z,8.33
2022-09-22T00:09:07.317Z,8.33
2022-09-22T00:10:07.128Z,8.30
2022-09-22T00:11:07.072Z,8.29
2022-09-22T00:12:07.039Z,8.29
2022-09-22T00:13:07.050Z,8.30
2022-09-22T00:14:07.289Z,8.30
2022-09-22T00:15:07.044Z,8.35
2022-09-22T00:16:07.103Z,8.39
2022-09-22T00:17:07.050Z,8.40
2022-09-22T00:18:06.977Z,8.42
2022-09-22T00:19:06.982Z,8.44
2022-09-22T00:20:06.919Z,8.39
2022-09-22T00:21:06.959Z,8.33
2022-09-22T00:22:07.240Z,8.28
2022-09-22T00:23:07.107Z,8.22
2022-09-22T00:24:07.210Z,8.22
2022-09-22T00:25:06.870Z,8.21
2022-09-22T00:26:06.890Z,8.20
2022-09-22T00:27:06.849Z,8.18
2022-09-22T00:28:06.861Z,8.18
2022-09-22T00:29:06.934Z,8.15
2022-09-22T00:30:06.865Z,8.15
2022-09-22T00:31:06.912Z,8.12
2022-09-22T00:32:07.892Z,8.11
2022-09-22T00:33:07.111Z,8.11
2022-09-22T00:34:06.771Z,8.10
2022-09-22T00:35:06.792Z,8.04
2022-09-22T00:36:06.788Z,8.03
2022-09-22T00:37:06.758Z,8.00
2022-09-22T00:38:06.731Z,8.00
2022-09-22T00:39:06.851Z,8.00
2022-09-22T00:40:06.877Z,7.97
2022-09-22T00:41:06.791Z,7.94
2022-09-22T00:42:06.682Z,7.94
2022-09-22T00:43:07.262Z,7.96
2022-09-22T00:44:06.681Z,7.93
2022-09-22T00:45:06.703Z,7.92
2022-09-22T00:46:06.622Z,7.89
2022-09-22T00:47:06.681Z,7.87
2022-09-22T00:48:06.631Z,7.85
2022-09-22T00:49:06.589Z,7.84
2022-09-22T00:50:06.623Z,7.84
2022-09-22T00:51:06.631Z,7.82
2022-09-22T00:52:06.593Z,7.81
2022-09-22T00:53:07.152Z,7.82
2022-09-22T00:54:06.708Z,7.81
2022-09-22T00:55:06.554Z,7.79
2022-09-22T00:56:06.512Z,7.81
2022-09-22T00:57:07.191Z,7.78
2022-09-22T00:58:06.555Z,7.77
2022-09-22T00:59:06.550Z,7.75
2022-09-22T01:00:06.484Z,7.72
2022-09-22T01:01:06.514Z,7.72
2022-09-22T01:02:06.561Z,7.69
2022-09-22T01:03:06.429Z,7.69
2022-09-22T01:04:06.476Z,7.69
2022-09-22T01:05:06.532Z,7.66
2022-09-22T01:06:06.407Z,7.63
2022-09-22T01:07:06.417Z,7.63
2022-09-22T01:08:06.397Z,7.62
2022-09-22T01:09:06.728Z,7.60
2022-09-22T01:10:06.410Z,7.59
2022-09-22T01:11:06.418Z,7.58
2022-09-22T01:12:06.347Z,7.60
2022-09-22T01:13:06.331Z,7.59
2022-09-22T01:14:06.362Z,7.59
2022-09-22T01:15:06.402Z,7.55
2022-09-22T01:16:06.764Z,7.53
2022-09-22T01:17:06.287Z,7.49
2022-09-22T01:18:06.295Z,7.47
2022-09-22T01:19:06.274Z,7.47
2022-09-22T01:20:06.339Z,7.45
2022-09-22T01:21:06.234Z,7.45
2022-09-22T01:22:06.679Z,7.44
2022-09-22T01:23:06.213Z,7.42
2022-09-22T01:24:06.331Z,7.42
2022-09-22T01:25:06.200Z,7.42
2022-09-22T01:26:06.197Z,7.41
2022-09-22T01:27:06.220Z,7.38
2022-09-22T01:28:06.176Z,7.38
2022-09-22T01:29:06.171Z,7.38
2022-09-22T01:30:06.140Z,7.37
2022-09-22T01:31:06.167Z,7.34
2022-09-22T01:32:06.112Z,7.32
2022-09-22T01:33:06.194Z,7.31
2022-09-22T01:34:06.106Z,7.32
2022-09-22T01:35:06.060Z,7.31
2022-09-22T01:36:06.089Z,7.32
2022-09-22T01:37:06.068Z,7.34
2022-09-22T01:38:06.054Z,7.38
2022-09-22T01:39:06.162Z,7.34
2022-09-22T01:40:06.088Z,7.32
2022-09-22T01:41:06.008Z,7.35
2022-09-22T01:42:06.058Z,7.32
2022-09-22T01:43:05.991Z,7.32
2022-09-22T01:44:06.023Z,7.37
2022-09-22T01:45:05.978Z,7.35
2022-09-22T01:46:06.013Z,7.34
2022-09-22T01:47:05.971Z,7.29
2022-09-22T01:48:05.933Z,7.26
2022-09-22T01:49:05.899Z,7.26
2022-09-22T01:50:05.931Z,7.23
2022-09-22T01:51:05.888Z,7.23
2022-09-22T01:52:05.880Z,7.22
2022-09-22T01:53:05.887Z,7.24
2022-09-22T01:54:05.966Z,7.24
2022-09-22T01:55:05.879Z,7.24
2022-09-22T01:56:05.874Z,7.22
2022-09-22T01:57:05.892Z,7.20
2022-09-22T01:58:05.814Z,7.17
2022-09-22T01:59:05.807Z,7.15
2022-09-22T02:00:05.823Z,7.15
2022-09-22T02:01:05.827Z,7.13
2022-09-22T02:02:05.826Z,7.12
2022-09-22T02:03:05.762Z,7.12
2022-09-22T02:04:05.741Z,7.12
2022-09-22T02:05:05.767Z,7.12
2022-09-22T02:06:05.712Z,7.09
2022-09-22T02:07:05.754Z,7.09
2022-09-22T02:08:05.695Z,7.08
2022-09-22T02:09:05.782Z,7.08
2022-09-22T02:10:05.682Z,7.07
2022-09-22T02:11:05.652Z,7.05
2022-09-22T02:12:05.651Z,7.04
2022-09-22T02:13:05.783Z,7.02
2022-09-22T02:14:05.621Z,7.02
2022-09-22T02:15:05.639Z,7.05
2022-09-22T02:16:05.657Z,7.04
2022-09-22T02:17:05.583Z,7.05
2022-09-22T02:18:05.593Z,7.05
2022-09-22T02:19:12.426Z,7.04
2022-09-22T02:20:06.554Z,6.99
2022-09-22T02:21:05.562Z,6.99
2022-09-22T02:22:05.544Z,7.01
2022-09-22T02:23:05.524Z,7.04
2022-09-22T02:24:05.685Z,7.02
2022-09-22T02:25:05.494Z,7.01
2022-09-22T02:26:05.485Z,7.04
2022-09-22T02:27:05.473Z,7.04
2022-09-22T02:28:05.495Z,7.08
2022-09-22T02:29:05.456Z,7.07
2022-09-22T02:30:05.464Z,7.08
2022-09-22T02:31:19.695Z,7.07
2022-09-22T02:32:06.463Z,7.05
2022-09-22T02:33:05.394Z,7.12
2022-09-22T02:34:05.394Z,7.12
2022-09-22T02:35:05.384Z,7.08
2022-09-22T02:36:05.405Z,7.05
2022-09-22T02:37:05.374Z,7.05
2022-09-22T02:38:05.356Z,7.05
2022-09-22T02:39:05.464Z,7.05
2022-09-22T02:40:05.365Z,7.02
2022-09-22T02:41:05.319Z,7.01
2022-09-22T02:42:05.346Z,6.98
2022-09-22T02:43:05.298Z,6.98
2022-09-22T02:44:05.265Z,6.97
2022-09-22T02:45:05.265Z,6.97
2022-09-22T02:46:05.339Z,6.91
2022-09-22T02:47:05.343Z,6.90
2022-09-22T02:48:05.246Z,6.89
2022-09-22T02:49:05.231Z,6.86
2022-09-22T02:50:05.227Z,6.87
2022-09-22T02:51:05.206Z,6.83
2022-09-22T02:52:05.194Z,6.83
2022-09-22T02:53:05.225Z,6.84
2022-09-22T02:54:05.248Z,6.84
2022-09-22T02:55:05.179Z,6.84
2022-09-22T02:56:05.152Z,6.84
2022-09-22T02:57:05.136Z,6.84
2022-09-22T02:58:05.151Z,6.83
2022-09-22T02:59:05.133Z,6.83
2022-09-22T03:00:05.123Z,6.81
2022-09-22T03:01:05.101Z,6.83
2022-09-22T03:02:05.112Z,6.83
2022-09-22T03:03:05.085Z,6.80
2022-09-22T03:04:05.080Z,6.79
2022-09-22T03:05:05.154Z,6.73
2022-09-22T03:06:05.038Z,6.72
2022-09-22T03:07:05.030Z,6.69
2022-09-22T03:08:05.003Z,6.66
2022-09-22T03:09:05.078Z,6.63
2022-09-22T03:10:05.038Z,6.59
2022-09-22T03:11:04.983Z,6.59
2022-09-22T03:12:04.957Z,6.58
2022-09-22T03:13:16.886Z,6.56
2022-09-22T03:14:05.940Z,6.53
2022-09-22T03:15:04.995Z,6.51
2022-09-22T03:16:05.013Z,6.47
2022-09-22T03:17:04.906Z,6.48
2022-09-22T03:18:04.898Z,6.47
2022-09-22T03:19:04.879Z,6.46
2022-09-22T03:20:04.887Z,6.44
2022-09-22T03:21:04.904Z,6.40
2022-09-22T03:22:04.850Z,6.41
2022-09-22T03:23:04.858Z,6.38
2022-09-22T03:24:04.892Z,6.36
2022-09-22T03:25:04.814Z,6.35
2022-09-22T03:26:04.821Z,6.36
2022-09-22T03:27:04.810Z,6.36
2022-09-22T03:28:04.801Z,6.30
2022-09-22T03:29:04.771Z,6.30
2022-09-22T03:30:04.789Z,6.29
2022-09-22T03:31:04.764Z,6.28
2022-09-22T03:32:04.732Z,6.28
2022-09-22T03:33:04.771Z,6.29
2022-09-22T03:34:04.731Z,6.32
2022-09-22T03:35:04.725Z,6.32
2022-09-22T03:36:04.691Z,6.33
2022-09-22T03:37:04.681Z,6.30
2022-09-22T03:38:04.664Z,6.32
2022-09-22T03:39:04.768Z,6.32
2022-09-22T03:40:04.709Z,6.32
2022-09-22T03:41:04.622Z,6.30
2022-09-22T03:42:04.631Z,6.30
2022-09-22T03:43:04.628Z,6.30
2022-09-22T03:44:04.661Z,6.33
2022-09-22T03:45:04.573Z,6.35
2022-09-22T03:46:04.660Z,6.36
2022-09-22T03:47:04.555Z,6.33
2022-09-22T03:48:04.553Z,6.32
2022-09-22T03:49:04.537Z,6.29
2022-09-22T03:50:04.554Z,6.28
2022-09-22T03:51:04.503Z,6.26
2022-09-22T03:52:04.563Z,6.28
2022-09-22T03:53:04.513Z,6.32
2022-09-22T03:54:04.486Z,6.30
2022-09-22T03:55:04.495Z,6.28
2022-09-22T03:56:04.490Z,6.28
2022-09-22T03:57:04.454Z,6.26
2022-09-22T03:58:04.460Z,6.22
2022-09-22T03:59:04.435Z,6.21
2022-09-22T04:00:04.604Z,6.19
2022-09-22T04:01:04.484Z,6.14
2022-09-22T04:02:04.485Z,6.16
2022-09-22T04:03:04.412Z,6.14
2022-09-22T04:04:04.396Z,6.13
2022-09-22T04:05:04.356Z,6.11
2022-09-22T04:06:04.357Z,6.09
2022-09-22T04:07:07.267Z,6.09
2022-09-22T04:08:04.379Z,6.07
2022-09-22T04:09:04.316Z,6.06
2022-09-22T04:10:04.308Z,6.04
2022-09-22T04:11:04.285Z,6.06
2022-09-22T04:12:04.291Z,6.06
2022-09-22T04:13:04.324Z,6.04
2022-09-22T04:14:04.266Z,6.01
2022-09-22T04:15:04.246Z,6.01
2022-09-22T04:16:04.245Z,6.00
2022-09-22T04:17:04.446Z,5.96
2022-09-22T04:18:04.215Z,5.92
2022-09-22T04:19:04.297Z,5.86
2022-09-22T04:20:04.197Z,5.83
2022-09-22T04:21:04.196Z,5.81
2022-09-22T04:22:04.183Z,5.81
2022-09-22T04:23:04.153Z,5.82
2022-09-22T04:24:04.139Z,5.83
2022-09-22T04:25:04.158Z,5.83
2022-09-22T04:26:04.116Z,5.85
2022-09-22T04:27:20.068Z,5.85
2022-09-22T04:28:05.713Z,5.83
2022-09-22T04:29:04.097Z,5.78
2022-09-22T04:30:04.476Z,5.82
2022-09-22T04:31:04.104Z,5.81
2022-09-22T04:32:04.058Z,5.77
2022-09-22T04:33:04.037Z,5.77
2022-09-22T04:34:07.474Z,5.78
2022-09-22T04:35:04.029Z,5.75
2022-09-22T04:36:04.069Z,5.73
2022-09-22T04:37:04.003Z,5.71
2022-09-22T04:38:03.998Z,5.70
2022-09-22T04:39:03.977Z,5.71
2022-09-22T04:40:04.051Z,5.73
2022-09-22T04:41:04.156Z,5.73
2022-09-22T04:42:04.970Z,5.71
2022-09-22T04:43:04.128Z,5.71
2022-09-22T04:44:03.968Z,5.71
2022-09-22T04:45:03.914Z,5.71
2022-09-22T04:46:04.061Z,5.70
2022-09-22T04:47:04.003Z,5.70
2022-09-22T04:48:03.935Z,5.71
2022-09-22T04:49:03.864Z,5.70
2022-09-22T04:50:03.848Z,5.70
2022-09-22T04:51:03.840Z,5.70
2022-09-22T04:52:03.827Z,5.68
2022-09-22T04:53:03.968Z,5.70
2022-09-22T04:54:03.820Z,5.75
2022-09-22T04:55:03.999Z,5.75
2022-09-22T04:56:04.061Z,5.82
2022-09-22T04:57:03.795Z,5.83
2022-09-22T04:58:03.762Z,5.82
2022-09-22T04:59:03.789Z,5.81
2022-09-22T05:00:03.749Z,5.81
2022-09-22T05:01:03.972Z,5.81
2022-09-22T05:02:03.744Z,5.82
2022-09-22T05:03:03.755Z,5.82
2022-09-22T05:04:03.692Z,5.81
2022-09-22T05:05:03.738Z,5.81
2022-09-22T05:06:03.715Z,5.82
2022-09-22T05:07:04.813Z,5.83
2022-09-22T05:08:03.675Z,5.83
2022-09-22T05:09:03.652Z,5.82
2022-09-22T05:10:03.629Z,5.86
2022-09-22T05:11:03.632Z,5.89
2022-09-22T05:12:03.594Z,5.89
2022-09-22T05:13:03.624Z,5.91
2022-09-22T05:14:03.586Z,5.88
2022-09-22T05:15:03.586Z,5.88
2022-09-22T05:16:03.634Z,5.86
2022-09-22T05:17:03.551Z,5.86
2022-09-22T05:18:03.539Z,5.88
2022-09-22T05:19:03.523Z,5.86
2022-09-22T05:20:03.512Z,5.85
2022-09-22T05:21:03.550Z,5.82
2022-09-22T05:22:03.535Z,5.83
2022-09-22T05:23:03.482Z,5.82
2022-09-22T05:24:03.516Z,5.82
2022-09-22T05:25:03.660Z,5.78
2022-09-22T05:26:03.450Z,5.81
2022-09-22T05:27:03.432Z,5.78
2022-09-22T05:28:03.486Z,5.83
2022-09-22T05:29:03.433Z,5.86
2022-09-22T05:30:03.404Z,5.85
2022-09-22T05:31:03.412Z,5.83
2022-09-22T05:32:03.526Z,5.85
2022-09-22T05:33:03.428Z,5.85
2022-09-22T05:34:03.592Z,5.86
2022-09-22T05:35:04.547Z,5.88
2022-09-22T05:36:03.335Z,5.91
2022-09-22T05:37:03.344Z,5.92
2022-09-22T05:38:03.632Z,5.89
2022-09-22T05:39:03.323Z,5.91
2022-09-22T05:40:03.379Z,5.93
2022-09-22T05:41:03.284Z,5.93
2022-09-22T05:42:06.380Z,5.93
2022-09-22T05:43:04.263Z,5.92
2022-09-22T05:44:03.234Z,5.95
2022-09-22T05:45:03.607Z,5.96
2022-09-22T05:46:03.293Z,5.98
2022-09-22T05:47:03.224Z,5.98
2022-09-22T05:48:03.206Z,6.00
2022-09-22T05:49:03.194Z,6.03
2022-09-22T05:50:03.166Z,6.04
2022-09-22T05:51:03.189Z,6.10
2022-09-22T05:52:03.164Z,6.09
2022-09-22T05:53:03.149Z,6.11
2022-09-22T05:54:03.165Z,6.14
2022-09-22T05:55:03.115Z,6.14
2022-09-22T05:56:03.139Z,6.21
2022-09-22T05:57:03.089Z,6.22
2022-09-22T05:58:03.086Z,6.25
2022-09-22T05:59:03.085Z,6.29
2022-09-22T06:00:03.066Z,6.29
2022-09-22T06:01:03.208Z,6.35
2022-09-22T06:02:13.353Z,6.36
2022-09-22T06:03:04.086Z,6.40
2022-09-22T06:04:03.023Z,6.44
2022-09-22T06:05:03.027Z,6.47
2022-09-22T06:06:02.992Z,6.48
2022-09-22T06:07:03.019Z,6.56
2022-09-22T06:08:02.969Z,6.63
2022-09-22T06:09:02.979Z,6.71
2022-09-22T06:10:02.936Z,6.76
2022-09-22T06:11:02.935Z,6.80
2022-09-22T06:12:02.961Z,6.86
2022-09-22T06:13:02.936Z,6.90
2022-09-22T06:14:03.013Z,6.91
2022-09-22T06:15:02.893Z,6.98
2022-09-22T06:16:03.069Z,7.02
2022-09-22T06:17:02.858Z,7.09
2022-09-22T06:18:02.934Z,7.15
2022-09-22T06:19:02.869Z,7.20
2022-09-22T06:20:02.837Z,7.26
2022-09-22T06:21:02.812Z,7.34
2022-09-22T06:22:02.818Z,7.38
2022-09-22T06:23:02.847Z,7.42
2022-09-22T06:24:02.808Z,7.47
2022-09-22T06:25:02.953Z,7.49
2022-09-22T06:26:02.831Z,7.49
2022-09-22T06:27:02.770Z,7.53
2022-09-22T06:28:02.760Z,7.58
2022-09-22T06:29:02.849Z,7.62
2022-09-22T06:30:02.789Z,7.60
2022-09-22T06:31:02.810Z,7.63
2022-09-22T06:32:02.735Z,7.72
2022-09-22T06:33:02.694Z,7.71
2022-09-22T06:34:05.515Z,7.75
2022-09-22T06:35:02.707Z,7.74
2022-09-22T06:36:02.910Z,7.67
2022-09-22T06:37:02.639Z,7.66
2022-09-22T06:38:02.620Z,7.72
2022-09-22T06:39:02.618Z,7.77
2022-09-22T06:40:02.624Z,7.82
2022-09-22T06:41:02.653Z,7.85
2022-09-22T06:42:02.604Z,7.89
2022-09-22T06:43:02.772Z,7.89
2022-09-22T06:44:02.570Z,7.90
2022-09-22T06:45:02.542Z,7.94
2022-09-22T06:46:02.557Z,7.92
2022-09-22T06:47:03.342Z,7.90
2022-09-22T06:48:06.299Z,7.92
2022-09-22T06:49:03.542Z,7.97
2022-09-22T06:50:02.501Z,8.02
2022-09-22T06:51:02.490Z,8.03
2022-09-22T06:52:02.486Z,8.11
2022-09-22T06:53:02.472Z,8.17
2022-09-22T06:54:02.461Z,8.20
2022-09-22T06:55:02.432Z,8.22
2022-09-22T06:56:02.422Z,8.28
2022-09-22T06:57:02.432Z,8.29
2022-09-22T06:58:02.441Z,8.28
2022-09-22T06:59:09.830Z,8.32
2022-09-22T07:00:03.495Z,8.30
2022-09-22T07:01:05.185Z,8.28
2022-09-22T07:02:03.441Z,8.30
2022-09-22T07:03:02.353Z,8.36
2022-09-22T07:04:02.343Z,8.40
2022-09-22T07:05:02.330Z,8.47
2022-09-22T07:06:02.312Z,8.50
2022-09-22T07:07:02.294Z,8.54
2022-09-22T07:08:02.293Z,8.58
2022-09-22T07:09:02.326Z,8.62
2022-09-22T07:10:02.255Z,8.60
2022-09-22T07:11:02.258Z,8.63
2022-09-22T07:12:02.237Z,8.65
2022-09-22T07:13:02.238Z,8.68
2022-09-22T07:14:02.231Z,8.73
2022-09-22T07:15:02.237Z,8.73
2022-09-22T07:16:02.220Z,8.78
2022-09-22T07:17:02.184Z,8.88
2022-09-22T07:18:02.176Z,8.96
2022-09-22T07:19:02.158Z,8.91
2022-09-22T07:20:02.147Z,8.93
2022-09-22T07:21:02.168Z,8.94
2022-09-22T07:22:02.117Z,9.04
2022-09-22T07:23:02.126Z,9.13
2022-09-22T07:24:02.098Z,9.23
2022-09-22T07:25:02.086Z,9.34
2022-09-22T07:26:02.106Z,9.43
2022-09-22T07:27:02.066Z,9.48
2022-09-22T07:28:02.057Z,9.52
2022-09-22T07:29:02.062Z,9.58
2022-09-22T07:30:02.037Z,9.67
2022-09-22T07:31:02.033Z,9.70
2022-09-22T07:32:02.102Z,9.78
2022-09-22T07:33:02.005Z,9.86
2022-09-22T07:34:02.012Z,9.94
2022-09-22T07:35:01.977Z,9.99
2022-09-22T07:36:01.959Z,10.01
2022-09-22T07:37:01.977Z,10.06
2022-09-22T07:38:01.938Z,10.17
2022-09-22T07:39:01.929Z,10.22
2022-09-22T07:40:01.947Z,10.26
2022-09-22T07:41:01.908Z,10.30
2022-09-22T07:42:01.894Z,10.36
2022-09-22T07:43:02.132Z,10.36
2022-09-22T07:44:01.879Z,10.39
2022-09-22T07:45:01.871Z,10.40
2022-09-22T07:46:01.840Z,10.43
2022-09-22T07:47:01.994Z,10.43
2022-09-22T07:48:01.868Z,10.52
2022-09-22T07:49:01.818Z,10.59
2022-09-22T07:50:01.802Z,10.55
2022-09-22T07:51:01.819Z,10.60
2022-09-22T07:52:01.782Z,10.68
2022-09-22T07:53:01.761Z,10.73
2022-09-22T07:54:01.802Z,10.80
2022-09-22T07:55:01.762Z,10.92
2022-09-22T07:56:01.746Z,10.96
2022-09-22T07:57:01.740Z,11.06
2022-09-22T07:58:01.742Z,11.10
2022-09-22T07:59:01.713Z,11.10
2022-09-22T08:00:01.714Z,11.03
2022-09-22T08:01:01.726Z,10.96
2022-09-22T08:02:01.733Z,10.92
2022-09-22T08:03:01.663Z,10.88
2022-09-22T08:04:01.669Z,10.92
2022-09-22T08:05:01.663Z,11.10
2022-09-22T08:06:05.993Z,11.14
2022-09-22T08:07:01.622Z,11.10
2022-09-22T08:08:01.613Z,11.14
2022-09-22T08:09:01.590Z,11.25
2022-09-22T08:10:01.576Z,11.24
2022-09-22T08:11:01.595Z,11.34
2022-09-22T08:12:01.577Z,11.49
2022-09-22T08:13:01.557Z,11.54
2022-09-22T08:14:01.554Z,11.56
2022-09-22T08:15:01.547Z,11.50
2022-09-22T08:16:01.632Z,11.47
2022-09-22T08:17:01.529Z,11.50
2022-09-22T08:18:01.495Z,11.39
2022-09-22T08:19:01.559Z,11.31
2022-09-22T08:20:01.467Z,11.31
2022-09-22T08:21:01.446Z,11.29
2022-09-22T08:22:01.475Z,11.28
2022-09-22T08:23:01.454Z,11.32
2022-09-22T08:24:01.418Z,11.39
2022-09-22T08:25:01.402Z,11.54
2022-09-22T08:26:01.387Z,11.70
2022-09-22T08:27:01.375Z,11.80
2022-09-22T08:28:01.396Z,11.90
2022-09-22T08:29:01.356Z,11.90
2022-09-22T08:30:01.352Z,12.01
2022-09-22T08:31:01.421Z,12.12
2022-09-22T08:32:01.338Z,12.16
2022-09-22T08:33:01.318Z,12.26
2022-09-22T08:34:01.329Z,12.38
2022-09-22T08:35:01.278Z,12.45
2022-09-22T08:36:01.282Z,12.56
2022-09-22T08:37:01.268Z,12.62
2022-09-22T08:38:01.252Z,12.67
2022-09-22T08:39:01.273Z,12.70
2022-09-22T08:40:01.239Z,12.64
2022-09-22T08:41:01.230Z,12.63
2022-09-22T08:42:01.226Z,12.51
2022-09-22T08:43:01.189Z,12.48
2022-09-22T08:44:01.190Z,12.54
2022-09-22T08:45:01.235Z,12.66
2022-09-22T08:46:01.178Z,12.71
2022-09-22T08:47:01.275Z,12.88
2022-09-22T08:48:01.170Z,12.97
2022-09-22T08:49:01.121Z,13.00
2022-09-22T08:50:01.124Z,13.12
2022-09-22T08:51:01.130Z,13.25
2022-09-22T08:52:01.103Z,13.33
2022-09-22T08:53:01.082Z,13.41
2022-09-22T08:54:06.951Z,13.44
2022-09-22T08:55:02.082Z,13.58
2022-09-22T08:56:01.056Z,13.49
2022-09-22T08:57:01.085Z,13.36
2022-09-22T08:58:01.034Z,13.18
2022-09-22T08:59:01.015Z,13.03
2022-09-22T09:00:01.037Z,12.99
2022-09-22T09:01:01.064Z,12.99
2022-09-22T09:02:01.118Z,13.06
2022-09-22T09:03:01.042Z,13.21
2022-09-22T09:04:00.955Z,13.32
2022-09-22T09:05:00.964Z,13.27
2022-09-22T09:06:00.945Z,13.27
2022-09-22T09:07:00.974Z,13.43
2022-09-22T09:08:00.975Z,13.46
2022-09-22T09:09:04.827Z,13.56
2022-09-22T09:10:00.898Z,13.71
2022-09-22T09:11:00.886Z,13.81
2022-09-22T09:12:00.917Z,13.98
2022-09-22T09:13:00.862Z,14.16
2022-09-22T09:14:00.889Z,14.27
2022-09-22T09:15:00.845Z,14.32
2022-09-22T09:16:00.925Z,14.39
2022-09-22T09:17:00.805Z,14.44
2022-09-22T09:18:00.811Z,14.37
2022-09-22T09:19:00.797Z,14.35
2022-09-22T09:20:00.960Z,14.39
2022-09-22T09:21:00.817Z,14.49
2022-09-22T09:22:00.767Z,14.54
2022-09-22T09:23:00.767Z,14.61
2022-09-22T09:25:27.149Z,14.69
2022-09-22T09:26:01.733Z,14.86
2022-09-22T09:27:00.707Z,15.01
2022-09-22T09:28:00.692Z,15.06
2022-09-22T09:29:03.878Z,15.13
2022-09-22T09:30:00.679Z,15.23
2022-09-22T09:31:00.706Z,15.30
2022-09-22T09:32:00.640Z,15.43
2022-09-22T09:33:00.659Z,15.60
2022-09-22T09:34:00.620Z,15.76
2022-09-22T09:35:00.658Z,15.93
2022-09-22T09:36:00.590Z,15.99
2022-09-22T09:37:00.612Z,15.94
2022-09-22T09:38:00.591Z,15.89
2022-09-22T09:39:00.606Z,15.96
2022-09-22T09:40:00.603Z,15.93
2022-09-22T09:41:00.539Z,15.88
2022-09-22T09:42:00.530Z,15.96
2022-09-22T09:43:03.082Z,16.14
2022-09-22T09:44:00.512Z,16.33
2022-09-22T09:45:00.491Z,16.48
2022-09-22T09:46:00.526Z,16.59
2022-09-22T09:47:00.520Z,16.65
2022-09-22T09:48:00.463Z,16.73
2022-09-22T09:49:00.465Z,16.81
2022-09-22T09:50:00.433Z,16.85
2022-09-22T09:51:00.424Z,16.85
2022-09-22T09:52:00.423Z,16.73
2022-09-22T09:53:00.402Z,16.74
2022-09-22T09:54:00.413Z,16.77
2022-09-22T09:55:00.386Z,16.83
2022-09-22T09:56:00.375Z,16.90
2022-09-22T09:57:00.359Z,16.95
2022-09-22T09:58:00.336Z,16.68
2022-09-22T09:59:00.404Z,16.73
2022-09-22T10:00:00.350Z,16.62
2022-09-22T10:01:00.307Z,16.67
2022-09-22T10:02:00.357Z,16.71
2022-09-22T10:03:00.296Z,16.75
2022-09-22T10:04:00.351Z,16.81
2022-09-22T10:05:00.297Z,16.92
2022-09-22T10:06:00.279Z,17.06
2022-09-22T10:07:01.442Z,17.17
2022-09-22T10:08:00.236Z,17.30
2022-09-22T10:09:00.254Z,17.41
2022-09-22T10:10:00.210Z,17.53
2022-09-22T10:11:00.261Z,17.51
2022-09-22T10:12:00.225Z,17.53
2022-09-22T10:13:00.200Z,17.54
2022-09-22T10:14:00.171Z,17.62
2022-09-22T10:15:00.156Z,17.64
2022-09-22T10:16:00.191Z,17.69
2022-09-22T10:17:00.162Z,17.69
2022-09-22T10:18:00.121Z,17.55
2022-09-22T10:19:00.112Z,17.59
2022-09-22T10:20:00.098Z,17.54
2022-09-22T10:21:00.094Z,17.50
2022-09-22T10:22:00.098Z,17.50
2022-09-22T10:23:00.068Z,17.51
2022-09-22T10:24:00.054Z,17.54
2022-09-22T10:25:00.054Z,17.55
2022-09-22T10:26:00.072Z,17.69
2022-09-22T10:27:02.515Z,17.76
2022-09-22T10:28:01.042Z,17.71
2022-09-22T10:28:59.991Z,17.59
2022-09-22T10:29:59.983Z,17.62
2022-09-22T10:31:00.024Z,17.71
2022-09-22T10:31:59.973Z,17.82
2022-09-22T10:32:59.984Z,17.92
2022-09-22T10:33:59.944Z,18.00
2022-09-22T10:34:59.924Z,17.95
2022-09-22T10:35:59.905Z,17.85
2022-09-22T10:36:59.897Z,17.94
2022-09-22T10:37:59.897Z,17.88
2022-09-22T10:39:00.211Z,17.95
2022-09-22T10:39:59.871Z,17.89
2022-09-22T10:40:59.855Z,17.71
2022-09-22T10:41:59.845Z,17.54
2022-09-22T10:42:59.831Z,17.64
2022-09-22T10:44:03.120Z,17.55
2022-09-22T10:45:00.836Z,17.57
2022-09-22T10:45:59.872Z,17.62
2022-09-22T10:46:59.797Z,17.54
2022-09-22T10:47:59.767Z,17.55
2022-09-22T10:48:59.837Z,17.64
2022-09-22T10:49:59.770Z,17.79
2022-09-22T10:50:59.739Z,17.92
2022-09-22T10:51:59.746Z,17.99
2022-09-22T10:52:59.718Z,18.03
2022-09-22T10:53:59.728Z,17.91
2022-09-22T10:54:59.718Z,17.81
2022-09-22T10:55:59.708Z,17.91
2022-09-22T10:56:59.659Z,17.89
2022-09-22T10:57:59.662Z,17.94
2022-09-22T10:58:59.641Z,17.97
2022-09-22T10:59:59.659Z,18.12
2022-09-22T11:00:59.660Z,18.27
2022-09-22T11:01:59.724Z,18.29
2022-09-22T11:02:59.603Z,18.29
2022-09-22T11:03:59.738Z,18.12
2022-09-22T11:04:59.701Z,18.18
2022-09-22T11:05:59.642Z,18.28
2022-09-22T11:06:59.562Z,18.19
2022-09-22T11:07:59.602Z,18.28
2022-09-22T11:08:59.532Z,18.29
2022-09-22T11:09:59.533Z,18.24
2022-09-22T11:10:59.512Z,18.24
2022-09-22T11:11:59.502Z,18.21
2022-09-22T11:12:59.480Z,18.17
2022-09-22T11:13:59.673Z,17.84
2022-09-22T11:14:59.475Z,17.84
2022-09-22T11:15:59.487Z,17.95
2022-09-22T11:16:59.436Z,18.07
2022-09-22T11:17:59.434Z,18.19
2022-09-22T11:18:59.415Z,18.36
2022-09-22T11:19:59.475Z,18.54
2022-09-22T11:20:59.396Z,18.67
2022-09-22T11:21:59.381Z,18.54
2022-09-22T11:22:59.367Z,18.44
2022-09-22T11:23:59.377Z,18.31
2022-09-22T11:24:59.366Z,18.12
2022-09-22T11:25:59.381Z,18.22
2022-09-22T11:26:59.348Z,18.29
2022-09-22T11:27:59.319Z,18.40
2022-09-22T11:28:59.296Z,18.52
2022-09-22T11:29:59.310Z,18.57
2022-09-22T11:30:59.361Z,18.61
2022-09-22T11:31:59.260Z,18.67
2022-09-22T11:32:59.536Z,18.76
2022-09-22T11:33:59.260Z,18.83
2022-09-22T11:34:59.258Z,18.90
2022-09-22T11:35:59.229Z,18.87
2022-09-22T11:36:59.230Z,18.84
2022-09-22T11:37:59.410Z,18.86
2022-09-22T11:38:59.177Z,18.94
2022-09-22T11:39:59.180Z,19.05
2022-09-22T11:40:59.163Z,19.17
2022-09-22T11:41:59.432Z,19.15
2022-09-22T11:43:02.116Z,19.06
2022-09-22T11:44:00.304Z,19.06
2022-09-22T11:44:59.123Z,18.84
2022-09-22T11:45:59.163Z,18.79
2022-09-22T11:46:59.099Z,18.74
2022-09-22T11:47:59.103Z,18.42
2022-09-22T11:48:59.069Z,18.31
2022-09-22T11:49:59.086Z,18.29
2022-09-22T11:50:59.042Z,18.22
2022-09-22T11:51:59.043Z,18.17
2022-09-22T11:52:59.023Z,18.28
2022-09-22T11:53:59.052Z,18.44
2022-09-22T11:55:00.787Z,18.36
2022-09-22T11:55:58.992Z,18.31
2022-09-22T11:56:58.983Z,18.34
2022-09-22T11:57:58.976Z,18.47
2022-09-22T11:58:58.955Z,18.54
2022-09-22T11:59:59.095Z,18.47
2022-09-22T12:00:58.936Z,18.54
2022-09-22T12:01:58.967Z,18.61
2022-09-22T12:03:01.910Z,18.58
2022-09-22T12:03:58.905Z,18.65
2022-09-22T12:04:58.915Z,18.67
2022-09-22T12:05:58.917Z,18.64
2022-09-22T12:06:58.868Z,18.64
2022-09-22T12:07:58.867Z,18.54
2022-09-22T12:08:58.869Z,18.61
2022-09-22T12:09:58.829Z,18.64
2022-09-22T12:10:59.796Z,18.64
2022-09-22T12:11:58.847Z,18.67
2022-09-22T12:12:58.800Z,18.76
2022-09-22T12:13:58.787Z,18.84
2022-09-22T12:14:58.801Z,18.82
2022-09-22T12:15:58.916Z,18.68
2022-09-22T12:16:58.861Z,18.86
2022-09-22T12:17:58.736Z,19.08
2022-09-22T12:18:58.782Z,19.08
2022-09-22T12:19:58.747Z,18.97
2022-09-22T12:20:58.700Z,18.94
2022-09-22T12:21:58.720Z,19.11
2022-09-22T12:22:58.681Z,19.11
2022-09-22T12:23:58.735Z,19.24
2022-09-22T12:24:58.663Z,19.35
2022-09-22T12:25:58.647Z,19.42
2022-09-22T12:26:58.643Z,19.29
2022-09-22T12:27:58.656Z,19.15
2022-09-22T12:28:58.612Z,19.20
2022-09-22T12:29:58.601Z,19.25
2022-09-22T12:30:58.684Z,19.32
2022-09-22T12:31:58.575Z,19.31
2022-09-22T12:32:58.609Z,19.36
2022-09-22T12:33:58.600Z,19.39
2022-09-22T12:34:58.545Z,19.40
2022-09-22T12:35:58.530Z,19.21
2022-09-22T12:36:58.537Z,19.14
2022-09-22T12:37:58.507Z,19.24
2022-09-22T12:38:58.494Z,19.25
2022-09-22T12:39:58.508Z,19.32
2022-09-22T12:40:58.485Z,19.39
2022-09-22T12:41:58.454Z,19.43
2022-09-22T12:42:58.456Z,19.39
2022-09-22T12:43:58.442Z,19.36
2022-09-22T12:44:58.428Z,19.31
2022-09-22T12:45:58.470Z,19.33
2022-09-22T12:46:58.416Z,19.36
2022-09-22T12:47:58.387Z,19.47
2022-09-22T12:48:58.447Z,19.42
2022-09-22T12:49:58.391Z,19.42
2022-09-22T12:50:58.477Z,19.40
2022-09-22T12:51:58.350Z,19.36
2022-09-22T12:52:58.338Z,19.40
2022-09-22T12:53:58.359Z,19.29
2022-09-22T12:54:58.339Z,19.23
2022-09-22T12:55:58.321Z,19.13
2022-09-22T12:56:59.587Z,18.99
2022-09-22T12:57:58.280Z,18.77
2022-09-22T12:58:58.260Z,18.65
2022-09-22T12:59:58.269Z,18.55
2022-09-22T13:00:58.306Z,18.47
2022-09-22T13:01:58.358Z,18.47
2022-09-22T13:02:58.252Z,18.46
2022-09-22T13:03:58.242Z,18.33
2022-09-22T13:04:58.211Z,18.29
2022-09-22T13:05:58.228Z,18.24
2022-09-22T13:06:58.231Z,18.19
2022-09-22T13:07:58.171Z,18.17